createdAt,value
2022-09-29T00:04:08.403Z,0
2022-09-29T00:09:45.571Z,0
2022-09-29T00:15:15.770Z,0
2022-09-29T00:20:54.239Z,2.4
2022-09-29T00:26:10.939Z,0
2022-09-29T00:31:48.616Z,3.6
2022-09-29T00:37:20.826Z,4.8
2022-09-29T00:43:03.237Z,4.8
2022-09-29T00:48:34.265Z,0
2022-09-29T00:53:51.261Z,4.8
2022-09-29T00:59:41.831Z,8.4
2022-09-29T01:05:23.385Z,7.2
2022-09-29T01:10:51.858Z,7.2
2022-09-29T01:16:21.004Z,5.9
2022-09-29T01:22:01.871Z,4.8
2022-09-29T01:27:33.420Z,4.8
2022-09-29T01:32:48.433Z,4.8
2022-09-29T01:38:28.453Z,3.6
2022-09-29T01:44:11.586Z,4.8
2022-09-29T01:49:41.365Z,4.8
2022-09-29T01:55:04.486Z,7.2
2022-09-29T02:00:44.448Z,5.9
2022-09-29T02:06:11.443Z,7.2
2022-09-29T02:12:08.046Z,9.6
2022-09-29T02:17:30.751Z,9.6
2022-09-29T02:23:01.633Z,8.4
2022-09-29T02:28:40.343Z,7.2
2022-09-29T02:34:21.524Z,7.2
2022-09-29T02:39:46.314Z,8.4
2022-09-29T02:45:17.436Z,7.2
2022-09-29T02:51:00.828Z,4.8
2022-09-29T02:56:22.600Z,5.9
2022-09-29T03:01:51.361Z,0
2022-09-29T03:07:18.225Z,5.9
2022-09-29T03:13:18.883Z,0
2022-09-29T03:18:27.498Z,2.4
2022-09-29T03:24:05.453Z,7.2
2022-09-29T03:29:36.637Z,3.6
2022-09-29T03:35:10.007Z,3.6
2022-09-29T03:40:55.011Z,3.6
2022-09-29T03:46:11.412Z,3.6
2022-09-29T03:51:59.107Z,3.6
2022-09-29T03:57:45.432Z,2.4
2022-09-29T04:02:54.095Z,0
2022-09-29T04:08:37.155Z,2.4
2022-09-29T04:14:22.355Z,2.4
2022-09-29T04:19:34.810Z,9.6
2022-09-29T04:25:19.876Z,10.7
2022-09-29T04:30:49.085Z,4.8
2022-09-29T04:36:24.998Z,0
2022-09-29T04:42:08.538Z,3.6
2022-09-29T04:47:44.401Z,3.6
2022-09-29T04:53:00.240Z,2.4
2022-09-29T04:58:37.704Z,0
2022-09-29T05:04:01.862Z,3.6
2022-09-29T05:09:45.055Z,0
2022-09-29T05:15:25.668Z,4.8
2022-09-29T05:21:05.135Z,7.2
2022-09-29T05:26:15.772Z,7.2
2022-09-29T05:32:02.239Z,4.8
2022-09-29T05:37:19.076Z,7.2
2022-09-29T05:42:53.451Z,5.9
2022-09-29T05:48:35.160Z,7.2
2022-09-29T05:54:24.860Z,7.2
2022-09-29T05:59:45.077Z,7.2
2022-09-29T06:05:19.106Z,4.8
2022-09-29T06:10:57.201Z,4.8
2022-09-29T06:16:16.666Z,3.6
2022-09-29T06:22:09.271Z,5.9
2022-09-29T06:27:28.929Z,7.2
2022-09-29T06:32:53.558Z,7.2
2022-09-29T06:38:28.963Z,7.2
2022-09-29T06:44:17.489Z,7.2
2022-09-29T06:49:43.529Z,4.8
2022-09-29T06:55:25.605Z,4.8
2022-09-29T07:00:56.876Z,5.9
2022-09-29T07:06:31.993Z,7.2
2022-09-29T07:12:14.445Z,3.6
2022-09-29T07:17:39.499Z,0
2022-09-29T07:23:09.973Z,0
2022-09-29T07:28:50.436Z,0
2022-09-29T07:34:04.583Z,0
2022-09-29T07:39:40.346Z,0
2022-09-29T07:45:14.045Z,0
2022-09-29T07:51:07.228Z,0
2022-09-29T07:56:32.323Z,0
2022-09-29T08:02:05.521Z,0
2022-09-29T08:07:31.654Z,0
2022-09-29T08:13:04.766Z,0
2022-09-29T08:18:50.711Z,0
2022-09-29T08:23:57.851Z,0
2022-09-29T08:29:45.178Z,0
2022-09-29T08:35:29.864Z,0
2022-09-29T08:41:00.181Z,0
2022-09-29T08:46:15.867Z,0
2022-09-29T08:52:14.759Z,0
2022-09-29T08:57:16.964Z,0
2022-09-29T09:03:06.741Z,3.6
2022-09-29T09:08:48.019Z,0
2022-09-29T09:14:25.040Z,0
2022-09-29T09:19:43.531Z,0
2022-09-29T09:52:56.341Z,0
2022-09-29T13:13:54.441Z,0
2022-09-29T14:54:29.496Z,0
2022-09-29T15:05:19.718Z,0
2022-09-29T15:10:57.421Z,0
2022-09-29T15:16:51.183Z,0
2022-09-29T15:27:45.351Z,0
2022-09-29T15:33:15.307Z,0
2022-09-29T15:38:43.424Z,0
2022-09-29T15:44:20.024Z,0
2022-09-29T15:49:54.815Z,0
2022-09-29T15:55:22.693Z,0
2022-09-29T16:01:10.079Z,0
2022-09-29T16:06:27.408Z,0
2022-09-29T16:12:03.392Z,0
2022-09-29T16:17:45.018Z,0
2022-09-29T16:23:09.301Z,0
2022-09-29T16:28:50.404Z,0
2022-09-29T16:34:39.147Z,0
2022-09-29T16:40:02.418Z,0
2022-09-29T16:45:34.341Z,0
2022-09-29T16:50:56.947Z,0
2022-09-29T16:56:43.253Z,0
2022-09-29T17:02:15.541Z,0
2022-09-29T17:07:39.031Z,0
2022-09-29T17:13:09.841Z,0
2022-09-29T17:19:02.076Z,0
2022-09-29T17:24:38.454Z,0
2022-09-29T17:30:11.398Z,0
2022-09-29T17:35:45.177Z,0
2022-09-29T17:40:54.797Z,0
2022-09-29T17:46:27.891Z,0
2022-09-29T17:52:21.693Z,0
2022-09-29T17:57:35.601Z,0
2022-09-29T18:20:07.621Z,0
2022-09-29T18:25:18.587Z,0
2022-09-29T18:30:50.657Z,0
2022-09-29T18:36:28.435Z,0
2022-09-29T18:42:27.528Z,0
2022-09-29T18:53:16.415Z,0
2022-09-29T18:58:46.075Z,0
2022-09-29T19:04:13.798Z,0
2022-09-29T19:15:44.956Z,0
2022-09-29T19:21:05.056Z,0
2022-09-29T19:32:28.798Z,0
2022-09-29T19:37:44.343Z,0
2022-09-29T20:49:55.568Z,0
2022-09-29T20:55:39.802Z,0
2022-09-29T21:01:19.520Z,0
2022-09-29T21:06:44.514Z,0
2022-09-29T21:17:47.789Z,0
2022-09-29T21:23:29.107Z,0
2022-09-29T21:29:14.882Z,0
2022-09-29T21:34:35.222Z,0
2022-09-29T21:40:13.183Z,0
2022-09-29T21:45:40.855Z,0
2022-09-29T21:51:11.631Z,0
2022-09-29T21:56:37.768Z,0
2022-09-29T22:02:24.662Z,0
2022-09-29T22:07:54.830Z,0
2022-09-29T22:13:29.304Z,0
2022-09-29T22:19:22.324Z,0
2022-09-29T22:24:32.663Z,0
2022-09-29T22:29:56.600Z,0
2022-09-29T22:35:37.440Z,0
2022-09-29T22:41:23.114Z,0
2022-09-29T22:46:39.632Z,0
2022-09-29T22:52:24.010Z,0
2022-09-29T22:57:59.160Z,0
2022-09-29T23:03:17.410Z,0
2022-09-29T23:09:01.688Z,0
2022-09-29T23:14:18.521Z,0
2022-09-29T23:20:08.938Z,0
2022-09-29T23:25:22.411Z,0
2022-09-29T23:31:09.619Z,0
2022-09-29T23:36:45.892Z,0
2022-09-29T23:42:25.811Z,0
2022-09-29T23:47:34.354Z,0
2022-09-29T23:53:26.189Z,0
2022-09-29T23:58:38.777Z,8.4
